Archival Weather

General Ignacio P Garcia Intl

General Ignacio P Garcia Intl, Mexico (MMHO)

Report from: Wednesday, December 6, 2023 7:44 AM CST
Current time: Friday, February 23, 2024 2:51 PM CST

Current weather – Weather history – Daily summaries
Weather forecast

Temperature10.0°C (50.0°F)
Dew point0.0°C (32.0°F)
Winds Calm
Visibility10 mi. (16.1 km)
Clouds Scattered clouds 9,000 ft. (2,743 m)
Altimeter30.05 in.Hg (1018 mB)
Relative humidity50 %
Density altitude-651 ft. (-198 m)
Flight conditions Visual Meteorological Conditions
Raw dataMMHO 061344Z 00000KT 10SM SCT090 10/00 A3005 RMK 8/030 ISOL CI HZY
An error has occurred. This application may no longer respond until reloaded. Reload 🗙